sensor_id;sensor_type;location;lat;lon;timestamp;P1;durP1;ratioP1;P2;durP2;ratioP2
56770;SDS011;42641;59.794;17.616;2023-03-23T00:01:07;8.97;;;3.07;;
56770;SDS011;42641;59.794;17.616;2023-03-23T00:03:46;12.07;;;2.80;;
56770;SDS011;42641;59.794;17.616;2023-03-23T00:06:14;11.53;;;3.10;;
56770;SDS011;42641;59.794;17.616;2023-03-23T00:08:47;9.77;;;2.90;;
56770;SDS011;42641;59.794;17.616;2023-03-23T00:11:16;14.87;;;2.83;;
56770;SDS011;42641;59.794;17.616;2023-03-23T00:13:48;11.93;;;3.10;;
56770;SDS011;42641;59.794;17.616;2023-03-23T00:16:21;11.50;;;3.03;;
56770;SDS011;42641;59.794;17.616;2023-03-23T00:18:57;10.70;;;2.90;;
56770;SDS011;42641;59.794;17.616;2023-03-23T00:21:27;9.97;;;2.93;;
56770;SDS011;42641;59.794;17.616;2023-03-23T00:24:00;13.90;;;3.13;;
56770;SDS011;42641;59.794;17.616;2023-03-23T00:26:28;10.20;;;3.00;;
56770;SDS011;42641;59.794;17.616;2023-03-23T00:28:55;13.57;;;2.80;;
56770;SDS011;42641;59.794;17.616;2023-03-23T00:31:22;12.27;;;3.17;;
56770;SDS011;42641;59.794;17.616;2023-03-23T00:33:48;12.33;;;3.30;;
56770;SDS011;42641;59.794;17.616;2023-03-23T00:36:15;11.43;;;3.20;;
56770;SDS011;42641;59.794;17.616;2023-03-23T00:38:43;14.60;;;3.30;;
56770;SDS011;42641;59.794;17.616;2023-03-23T00:41:09;11.93;;;3.13;;
56770;SDS011;42641;59.794;17.616;2023-03-23T00:43:37;12.77;;;3.30;;
56770;SDS011;42641;59.794;17.616;2023-03-23T00:46:04;15.00;;;4.03;;
56770;SDS011;42641;59.794;17.616;2023-03-23T00:48:35;14.73;;;3.87;;
56770;SDS011;42641;59.794;17.616;2023-03-23T00:51:11;8.30;;;2.97;;
56770;SDS011;42641;59.794;17.616;2023-03-23T00:53:38;14.40;;;3.47;;
56770;SDS011;42641;59.794;17.616;2023-03-23T00:56:06;12.80;;;3.93;;
56770;SDS011;42641;59.794;17.616;2023-03-23T00:58:33;16.50;;;3.57;;
56770;SDS011;42641;59.794;17.616;2023-03-23T01:01:00;15.03;;;3.63;;
56770;SDS011;42641;59.794;17.616;2023-03-23T01:03:27;14.53;;;3.37;;
56770;SDS011;42641;59.794;17.616;2023-03-23T01:05:58;11.90;;;3.40;;
56770;SDS011;42641;59.794;17.616;2023-03-23T01:08:31;11.03;;;3.63;;
56770;SDS011;42641;59.794;17.616;2023-03-23T01:11:02;15.27;;;3.80;;
56770;SDS011;42641;59.794;17.616;2023-03-23T01:13:31;13.70;;;3.60;;
56770;SDS011;42641;59.794;17.616;2023-03-23T01:15:58;12.63;;;3.43;;
56770;SDS011;42641;59.794;17.616;2023-03-23T01:18:24;16.30;;;3.50;;
56770;SDS011;42641;59.794;17.616;2023-03-23T01:20:51;19.43;;;3.80;;
56770;SDS011;42641;59.794;17.616;2023-03-23T01:23:17;17.20;;;4.07;;
56770;SDS011;42641;59.794;17.616;2023-03-23T01:25:44;14.20;;;4.23;;
56770;SDS011;42641;59.794;17.616;2023-03-23T01:28:11;17.87;;;3.43;;
56770;SDS011;42641;59.794;17.616;2023-03-23T01:30:37;12.40;;;3.87;;
56770;SDS011;42641;59.794;17.616;2023-03-23T01:33:03;13.53;;;3.47;;
56770;SDS011;42641;59.794;17.616;2023-03-23T01:35:30;16.83;;;4.27;;
56770;SDS011;42641;59.794;17.616;2023-03-23T01:37:57;15.53;;;4.10;;
56770;SDS011;42641;59.794;17.616;2023-03-23T01:40:23;15.20;;;4.20;;
56770;SDS011;42641;59.794;17.616;2023-03-23T01:42:52;17.63;;;4.97;;
56770;SDS011;42641;59.794;17.616;2023-03-23T01:47:47;15.97;;;4.13;;
56770;SDS011;42641;59.794;17.616;2023-03-23T01:50:18;14.20;;;3.67;;
56770;SDS011;42641;59.794;17.616;2023-03-23T01:52:49;14.37;;;4.57;;
56770;SDS011;42641;59.794;17.616;2023-03-23T01:55:18;17.20;;;4.53;;
56770;SDS011;42641;59.794;17.616;2023-03-23T01:57:47;20.37;;;4.60;;
56770;SDS011;42641;59.794;17.616;2023-03-23T02:00:15;17.43;;;4.00;;
56770;SDS011;42641;59.794;17.616;2023-03-23T02:02:49;18.33;;;4.30;;
56770;SDS011;42641;59.794;17.616;2023-03-23T02:05:24;19.00;;;3.87;;
56770;SDS011;42641;59.794;17.616;2023-03-23T02:07:58;22.57;;;4.17;;
56770;SDS011;42641;59.794;17.616;2023-03-23T02:10:32;18.70;;;5.10;;
56770;SDS011;42641;59.794;17.616;2023-03-23T02:12:59;15.97;;;3.27;;
56770;SDS011;42641;59.794;17.616;2023-03-23T02:15:29;19.60;;;4.37;;
56770;SDS011;42641;59.794;17.616;2023-03-23T02:18:16;21.23;;;4.40;;
56770;SDS011;42641;59.794;17.616;2023-03-23T02:20:53;22.83;;;4.67;;
56770;SDS011;42641;59.794;17.616;2023-03-23T02:35:35;17.97;;;3.90;;
56770;SDS011;42641;59.794;17.616;2023-03-23T02:38:10;24.23;;;4.40;;
56770;SDS011;42641;59.794;17.616;2023-03-23T02:40:45;17.60;;;4.27;;
56770;SDS011;42641;59.794;17.616;2023-03-23T02:43:15;18.17;;;4.37;;
56770;SDS011;42641;59.794;17.616;2023-03-23T02:45:45;20.57;;;4.10;;
56770;SDS011;42641;59.794;17.616;2023-03-23T02:48:13;14.80;;;4.27;;
56770;SDS011;42641;59.794;17.616;2023-03-23T02:50:43;16.87;;;3.80;;
56770;SDS011;42641;59.794;17.616;2023-03-23T02:53:13;22.33;;;4.80;;
56770;SDS011;42641;59.794;17.616;2023-03-23T02:55:44;15.33;;;3.77;;
56770;SDS011;42641;59.794;17.616;2023-03-23T02:58:16;11.20;;;3.30;;
56770;SDS011;42641;59.794;17.616;2023-03-23T03:00:43;18.10;;;4.20;;
56770;SDS011;42641;59.794;17.616;2023-03-23T03:03:12;18.67;;;4.23;;
56770;SDS011;42641;59.794;17.616;2023-03-23T03:08:31;16.73;;;3.90;;
56770;SDS011;42641;59.794;17.616;2023-03-23T03:11:17;13.37;;;4.20;;
56770;SDS011;42641;59.794;17.616;2023-03-23T03:16:44;18.23;;;3.60;;
56770;SDS011;42641;59.794;17.616;2023-03-23T03:19:31;21.73;;;4.40;;
56770;SDS011;42641;59.794;17.616;2023-03-23T03:22:01;18.07;;;4.10;;
56770;SDS011;42641;59.794;17.616;2023-03-23T03:24:38;16.93;;;3.87;;
56770;SDS011;42641;59.794;17.616;2023-03-23T03:27:13;14.43;;;3.93;;
56770;SDS011;42641;59.794;17.616;2023-03-23T03:29:51;15.63;;;3.77;;
56770;SDS011;42641;59.794;17.616;2023-03-23T03:32:25;18.73;;;4.00;;
56770;SDS011;42641;59.794;17.616;2023-03-23T03:35:03;19.77;;;4.13;;
56770;SDS011;42641;59.794;17.616;2023-03-23T03:37:34;16.10;;;3.70;;
56770;SDS011;42641;59.794;17.616;2023-03-23T03:40:07;16.10;;;4.00;;
56770;SDS011;42641;59.794;17.616;2023-03-23T03:42:39;15.70;;;4.33;;
56770;SDS011;42641;59.794;17.616;2023-03-23T03:45:09;19.70;;;3.77;;
56770;SDS011;42641;59.794;17.616;2023-03-23T03:47:38;22.03;;;4.50;;
56770;SDS011;42641;59.794;17.616;2023-03-23T03:50:04;22.70;;;4.23;;
56770;SDS011;42641;59.794;17.616;2023-03-23T03:52:32;20.03;;;4.40;;
56770;SDS011;42641;59.794;17.616;2023-03-23T03:54:59;19.20;;;4.63;;
56770;SDS011;42641;59.794;17.616;2023-03-23T03:57:27;18.30;;;4.60;;
56770;SDS011;42641;59.794;17.616;2023-03-23T04:00:23;20.40;;;4.27;;
56770;SDS011;42641;59.794;17.616;2023-03-23T04:02:49;18.03;;;3.97;;
56770;SDS011;42641;59.794;17.616;2023-03-23T04:05:40;22.07;;;4.83;;
56770;SDS011;42641;59.794;17.616;2023-03-23T04:08:07;18.07;;;3.97;;
56770;SDS011;42641;59.794;17.616;2023-03-23T04:10:34;15.70;;;4.40;;
56770;SDS011;42641;59.794;17.616;2023-03-23T04:13:01;23.57;;;4.23;;
56770;SDS011;42641;59.794;17.616;2023-03-23T04:16:02;18.23;;;4.67;;
56770;SDS011;42641;59.794;17.616;2023-03-23T04:18:31;16.00;;;4.13;;
56770;SDS011;42641;59.794;17.616;2023-03-23T04:21:02;22.57;;;4.10;;
56770;SDS011;42641;59.794;17.616;2023-03-23T04:23:30;16.87;;;4.60;;
56770;SDS011;42641;59.794;17.616;2023-03-23T04:26:01;21.80;;;5.77;;
56770;SDS011;42641;59.794;17.616;2023-03-23T04:28:34;17.03;;;4.30;;
56770;SDS011;42641;59.794;17.616;2023-03-23T04:31:19;20.47;;;4.17;;
56770;SDS011;42641;59.794;17.616;2023-03-23T04:33:52;18.63;;;4.20;;
56770;SDS011;42641;59.794;17.616;2023-03-23T04:36:20;20.50;;;3.60;;
56770;SDS011;42641;59.794;17.616;2023-03-23T04:39:02;24.10;;;5.67;;
56770;SDS011;42641;59.794;17.616;2023-03-23T04:41:29;12.03;;;3.87;;
56770;SDS011;42641;59.794;17.616;2023-03-23T04:44:15;17.10;;;4.70;;
56770;SDS011;42641;59.794;17.616;2023-03-23T04:46:52;17.13;;;4.33;;
56770;SDS011;42641;59.794;17.616;2023-03-23T04:49:21;19.03;;;3.93;;
56770;SDS011;42641;59.794;17.616;2023-03-23T04:51:58;18.00;;;4.37;;
56770;SDS011;42641;59.794;17.616;2023-03-23T04:54:40;17.43;;;4.80;;
56770;SDS011;42641;59.794;17.616;2023-03-23T04:57:07;16.77;;;4.07;;
56770;SDS011;42641;59.794;17.616;2023-03-23T04:59:35;17.97;;;4.00;;
56770;SDS011;42641;59.794;17.616;2023-03-23T05:02:13;19.03;;;4.50;;
56770;SDS011;42641;59.794;17.616;2023-03-23T05:04:43;16.60;;;4.30;;
56770;SDS011;42641;59.794;17.616;2023-03-23T05:07:14;19.20;;;4.13;;
56770;SDS011;42641;59.794;17.616;2023-03-23T05:09:46;20.17;;;4.60;;
56770;SDS011;42641;59.794;17.616;2023-03-23T05:12:14;15.33;;;3.97;;
56770;SDS011;42641;59.794;17.616;2023-03-23T05:14:51;18.30;;;4.43;;
56770;SDS011;42641;59.794;17.616;2023-03-23T05:17:20;17.73;;;3.87;;
56770;SDS011;42641;59.794;17.616;2023-03-23T05:19:51;16.53;;;5.23;;
56770;SDS011;42641;59.794;17.616;2023-03-23T05:22:41;16.67;;;4.43;;
56770;SDS011;42641;59.794;17.616;2023-03-23T05:25:11;14.50;;;4.00;;
56770;SDS011;42641;59.794;17.616;2023-03-23T05:27:42;15.90;;;3.73;;
56770;SDS011;42641;59.794;17.616;2023-03-23T05:30:32;14.17;;;4.67;;
56770;SDS011;42641;59.794;17.616;2023-03-23T05:32:59;24.33;;;4.43;;
56770;SDS011;42641;59.794;17.616;2023-03-23T05:35:41;16.90;;;4.27;;
56770;SDS011;42641;59.794;17.616;2023-03-23T05:38:08;18.07;;;4.03;;
56770;SDS011;42641;59.794;17.616;2023-03-23T05:40:35;16.30;;;4.07;;
56770;SDS011;42641;59.794;17.616;2023-03-23T05:43:22;18.90;;;4.40;;
56770;SDS011;42641;59.794;17.616;2023-03-23T05:46:17;16.77;;;3.53;;
56770;SDS011;42641;59.794;17.616;2023-03-23T05:48:45;20.43;;;5.23;;
56770;SDS011;42641;59.794;17.616;2023-03-23T05:51:15;19.37;;;4.10;;
56770;SDS011;42641;59.794;17.616;2023-03-23T05:53:43;22.10;;;5.00;;
56770;SDS011;42641;59.794;17.616;2023-03-23T05:56:12;20.47;;;4.50;;
56770;SDS011;42641;59.794;17.616;2023-03-23T05:59:00;18.53;;;4.50;;
56770;SDS011;42641;59.794;17.616;2023-03-23T06:01:30;19.10;;;4.10;;
56770;SDS011;42641;59.794;17.616;2023-03-23T06:03:58;19.00;;;4.20;;
56770;SDS011;42641;59.794;17.616;2023-03-23T06:06:33;21.77;;;3.97;;
56770;SDS011;42641;59.794;17.616;2023-03-23T06:09:07;17.23;;;3.90;;
56770;SDS011;42641;59.794;17.616;2023-03-23T06:11:53;17.77;;;4.63;;
56770;SDS011;42641;59.794;17.616;2023-03-23T06:14:37;13.67;;;4.00;;
56770;SDS011;42641;59.794;17.616;2023-03-23T06:17:04;21.37;;;4.77;;
56770;SDS011;42641;59.794;17.616;2023-03-23T06:19:31;16.37;;;4.23;;
56770;SDS011;42641;59.794;17.616;2023-03-23T06:22:10;18.03;;;3.73;;
56770;SDS011;42641;59.794;17.616;2023-03-23T06:24:43;19.83;;;4.47;;
56770;SDS011;42641;59.794;17.616;2023-03-23T06:27:12;18.97;;;4.50;;
56770;SDS011;42641;59.794;17.616;2023-03-23T06:29:41;16.10;;;3.40;;
56770;SDS011;42641;59.794;17.616;2023-03-23T06:32:11;20.57;;;4.07;;
56770;SDS011;42641;59.794;17.616;2023-03-23T06:34:41;21.73;;;5.00;;
56770;SDS011;42641;59.794;17.616;2023-03-23T06:37:37;22.70;;;4.47;;
56770;SDS011;42641;59.794;17.616;2023-03-23T06:40:13;21.17;;;4.90;;
56770;SDS011;42641;59.794;17.616;2023-03-23T06:42:43;19.83;;;4.30;;
56770;SDS011;42641;59.794;17.616;2023-03-23T06:45:32;22.33;;;4.80;;
56770;SDS011;42641;59.794;17.616;2023-03-23T06:48:17;15.87;;;5.23;;
56770;SDS011;42641;59.794;17.616;2023-03-23T06:50:45;20.93;;;4.93;;
56770;SDS011;42641;59.794;17.616;2023-03-23T06:53:15;16.67;;;4.47;;
56770;SDS011;42641;59.794;17.616;2023-03-23T06:55:42;18.20;;;4.27;;
56770;SDS011;42641;59.794;17.616;2023-03-23T06:58:09;12.90;;;3.60;;
56770;SDS011;42641;59.794;17.616;2023-03-23T07:00:36;18.23;;;4.03;;
56770;SDS011;42641;59.794;17.616;2023-03-23T07:03:03;21.63;;;4.70;;
56770;SDS011;42641;59.794;17.616;2023-03-23T07:05:31;18.37;;;4.30;;
56770;SDS011;42641;59.794;17.616;2023-03-23T07:07:59;16.73;;;4.10;;
56770;SDS011;42641;59.794;17.616;2023-03-23T07:10:41;16.37;;;3.83;;
56770;SDS011;42641;59.794;17.616;2023-03-23T07:13:09;13.60;;;3.93;;
56770;SDS011;42641;59.794;17.616;2023-03-23T07:15:46;11.43;;;4.10;;
56770;SDS011;42641;59.794;17.616;2023-03-23T07:18:14;15.70;;;4.10;;
56770;SDS011;42641;59.794;17.616;2023-03-23T07:20:49;17.10;;;4.17;;
56770;SDS011;42641;59.794;17.616;2023-03-23T07:23:18;21.70;;;4.43;;
56770;SDS011;42641;59.794;17.616;2023-03-23T07:25:51;14.33;;;4.23;;
56770;SDS011;42641;59.794;17.616;2023-03-23T07:28:22;16.03;;;4.07;;
56770;SDS011;42641;59.794;17.616;2023-03-23T07:30:50;17.57;;;4.37;;
56770;SDS011;42641;59.794;17.616;2023-03-23T07:33:18;20.07;;;3.87;;
56770;SDS011;42641;59.794;17.616;2023-03-23T07:35:45;15.93;;;4.27;;
56770;SDS011;42641;59.794;17.616;2023-03-23T07:38:15;13.00;;;3.77;;
56770;SDS011;42641;59.794;17.616;2023-03-23T07:40:46;13.87;;;3.73;;
56770;SDS011;42641;59.794;17.616;2023-03-23T07:43:16;16.17;;;4.47;;
56770;SDS011;42641;59.794;17.616;2023-03-23T07:46:01;14.03;;;4.33;;
56770;SDS011;42641;59.794;17.616;2023-03-23T07:48:37;18.23;;;4.17;;
56770;SDS011;42641;59.794;17.616;2023-03-23T07:51:05;13.97;;;4.07;;
56770;SDS011;42641;59.794;17.616;2023-03-23T07:53:33;14.90;;;3.83;;
56770;SDS011;42641;59.794;17.616;2023-03-23T07:56:18;13.57;;;4.03;;
56770;SDS011;42641;59.794;17.616;2023-03-23T07:58:45;16.33;;;4.10;;
56770;SDS011;42641;59.794;17.616;2023-03-23T08:01:13;15.27;;;4.37;;
56770;SDS011;42641;59.794;17.616;2023-03-23T08:03:42;11.70;;;3.57;;
56770;SDS011;42641;59.794;17.616;2023-03-23T08:06:31;16.70;;;4.13;;
56770;SDS011;42641;59.794;17.616;2023-03-23T08:09:26;15.57;;;4.20;;
56770;SDS011;42641;59.794;17.616;2023-03-23T08:12:22;14.57;;;3.93;;
56770;SDS011;42641;59.794;17.616;2023-03-23T08:15:00;17.57;;;4.00;;
56770;SDS011;42641;59.794;17.616;2023-03-23T08:17:59;17.93;;;4.40;;
56770;SDS011;42641;59.794;17.616;2023-03-23T08:20:45;18.67;;;4.30;;
56770;SDS011;42641;59.794;17.616;2023-03-23T08:23:31;19.93;;;4.40;;
56770;SDS011;42641;59.794;17.616;2023-03-23T08:26:17;11.33;;;4.33;;
56770;SDS011;42641;59.794;17.616;2023-03-23T08:29:02;15.20;;;4.17;;
56770;SDS011;42641;59.794;17.616;2023-03-23T08:31:47;24.10;;;4.47;;
56770;SDS011;42641;59.794;17.616;2023-03-23T08:34:42;17.33;;;4.03;;
56770;SDS011;42641;59.794;17.616;2023-03-23T08:37:27;15.67;;;4.10;;
56770;SDS011;42641;59.794;17.616;2023-03-23T08:40:18;16.57;;;4.60;;
56770;SDS011;42641;59.794;17.616;2023-03-23T08:42:49;20.27;;;4.20;;
56770;SDS011;42641;59.794;17.616;2023-03-23T08:45:36;21.93;;;4.13;;
56770;SDS011;42641;59.794;17.616;2023-03-23T08:48:21;16.23;;;4.17;;
56770;SDS011;42641;59.794;17.616;2023-03-23T08:51:11;13.33;;;3.80;;
56770;SDS011;42641;59.794;17.616;2023-03-23T08:53:50;16.23;;;4.40;;
56770;SDS011;42641;59.794;17.616;2023-03-23T08:56:40;14.00;;;3.60;;
56770;SDS011;42641;59.794;17.616;2023-03-23T08:59:28;13.73;;;4.03;;
56770;SDS011;42641;59.794;17.616;2023-03-23T09:02:33;15.90;;;3.90;;
56770;SDS011;42641;59.794;17.616;2023-03-23T09:05:16;16.80;;;3.97;;
56770;SDS011;42641;59.794;17.616;2023-03-23T09:08:10;14.00;;;3.67;;
56770;SDS011;42641;59.794;17.616;2023-03-23T09:10:38;16.00;;;4.67;;
56770;SDS011;42641;59.794;17.616;2023-03-23T09:13:05;17.77;;;4.10;;
56770;SDS011;42641;59.794;17.616;2023-03-23T09:15:32;15.73;;;4.30;;
56770;SDS011;42641;59.794;17.616;2023-03-23T09:17:58;14.60;;;3.97;;
56770;SDS011;42641;59.794;17.616;2023-03-23T09:20:27;13.60;;;3.87;;
56770;SDS011;42641;59.794;17.616;2023-03-23T09:22:54;11.27;;;3.43;;
56770;SDS011;42641;59.794;17.616;2023-03-23T09:25:23;11.83;;;3.33;;
56770;SDS011;42641;59.794;17.616;2023-03-23T09:27:53;13.77;;;4.10;;
56770;SDS011;42641;59.794;17.616;2023-03-23T09:30:23;10.27;;;4.07;;
56770;SDS011;42641;59.794;17.616;2023-03-23T09:32:52;15.30;;;3.60;;
56770;SDS011;42641;59.794;17.616;2023-03-23T09:35:19;9.50;;;3.00;;
56770;SDS011;42641;59.794;17.616;2023-03-23T09:37:51;14.63;;;3.43;;
56770;SDS011;42641;59.794;17.616;2023-03-23T09:40:19;13.33;;;3.90;;
56770;SDS011;42641;59.794;17.616;2023-03-23T09:45:37;11.30;;;3.50;;
56770;SDS011;42641;59.794;17.616;2023-03-23T09:50:46;12.33;;;3.60;;
56770;SDS011;42641;59.794;17.616;2023-03-23T09:53:21;12.97;;;3.57;;
56770;SDS011;42641;59.794;17.616;2023-03-23T09:55:53;12.77;;;3.60;;
56770;SDS011;42641;59.794;17.616;2023-03-23T09:58:36;13.77;;;3.43;;
56770;SDS011;42641;59.794;17.616;2023-03-23T10:01:20;12.53;;;3.30;;
56770;SDS011;42641;59.794;17.616;2023-03-23T10:03:53;7.67;;;3.27;;
56770;SDS011;42641;59.794;17.616;2023-03-23T10:06:27;7.77;;;2.70;;
56770;SDS011;42641;59.794;17.616;2023-03-23T10:08:55;12.10;;;3.60;;
56770;SDS011;42641;59.794;17.616;2023-03-23T10:11:47;14.03;;;3.73;;
56770;SDS011;42641;59.794;17.616;2023-03-23T10:14:40;13.17;;;3.50;;
56770;SDS011;42641;59.794;17.616;2023-03-23T10:23:01;10.57;;;3.50;;
56770;SDS011;42641;59.794;17.616;2023-03-23T10:25:56;10.77;;;3.10;;
56770;SDS011;42641;59.794;17.616;2023-03-23T10:28:35;10.40;;;3.20;;
56770;SDS011;42641;59.794;17.616;2023-03-23T10:31:28;7.20;;;2.73;;
56770;SDS011;42641;59.794;17.616;2023-03-23T10:34:01;11.67;;;3.73;;
56770;SDS011;42641;59.794;17.616;2023-03-23T10:36:36;7.97;;;2.70;;
56770;SDS011;42641;59.794;17.616;2023-03-23T10:39:13;10.50;;;3.13;;
56770;SDS011;42641;59.794;17.616;2023-03-23T10:41:43;11.30;;;3.30;;
56770;SDS011;42641;59.794;17.616;2023-03-23T10:44:19;13.03;;;3.47;;
56770;SDS011;42641;59.794;17.616;2023-03-23T10:46:53;10.33;;;3.43;;
56770;SDS011;42641;59.794;17.616;2023-03-23T10:49:28;11.43;;;3.10;;
56770;SDS011;42641;59.794;17.616;2023-03-23T10:52:17;11.70;;;3.13;;
56770;SDS011;42641;59.794;17.616;2023-03-23T10:55:18;12.60;;;3.50;;
56770;SDS011;42641;59.794;17.616;2023-03-23T10:58:01;11.60;;;3.30;;
56770;SDS011;42641;59.794;17.616;2023-03-23T11:00:30;11.57;;;3.30;;
56770;SDS011;42641;59.794;17.616;2023-03-23T11:02:59;11.57;;;2.93;;
56770;SDS011;42641;59.794;17.616;2023-03-23T11:05:44;10.33;;;2.90;;
56770;SDS011;42641;59.794;17.616;2023-03-23T11:08:17;13.80;;;3.23;;
56770;SDS011;42641;59.794;17.616;2023-03-23T11:10:53;10.23;;;3.40;;
56770;SDS011;42641;59.794;17.616;2023-03-23T11:13:29;9.30;;;2.70;;
56770;SDS011;42641;59.794;17.616;2023-03-23T11:15:57;9.03;;;2.80;;
56770;SDS011;42641;59.794;17.616;2023-03-23T11:18:25;10.20;;;2.73;;
56770;SDS011;42641;59.794;17.616;2023-03-23T11:21:12;11.63;;;3.33;;
56770;SDS011;42641;59.794;17.616;2023-03-23T11:23:41;9.40;;;2.90;;
56770;SDS011;42641;59.794;17.616;2023-03-23T11:31:23;11.55;;;3.28;;
56770;SDS011;42641;59.794;17.616;2023-03-23T11:33:55;9.35;;;3.13;;
56770;SDS011;42641;59.794;17.616;2023-03-23T11:36:33;11.82;;;3.22;;
56770;SDS011;42641;59.794;17.616;2023-03-23T11:41:47;10.18;;;3.15;;
56770;SDS011;42641;59.794;17.616;2023-03-23T11:44:14;9.30;;;3.00;;
56770;SDS011;42641;59.794;17.616;2023-03-23T11:49:52;9.73;;;2.70;;
56770;SDS011;42641;59.794;17.616;2023-03-23T11:54:51;10.10;;;3.17;;
56770;SDS011;42641;59.794;17.616;2023-03-23T11:57:30;11.45;;;3.05;;
56770;SDS011;42641;59.794;17.616;2023-03-23T11:59:56;8.77;;;2.72;;
56770;SDS011;42641;59.794;17.616;2023-03-23T12:07:50;7.53;;;2.30;;
56770;SDS011;42641;59.794;17.616;2023-03-23T12:21:18;10.52;;;2.95;;
56770;SDS011;42641;59.794;17.616;2023-03-23T12:23:56;10.25;;;3.20;;
56770;SDS011;42641;59.794;17.616;2023-03-23T12:33:07;9.65;;;2.55;;
56770;SDS011;42641;59.794;17.616;2023-03-23T12:43:41;10.27;;;2.95;;
56770;SDS011;42641;59.794;17.616;2023-03-23T12:49:35;9.15;;;3.15;;
56770;SDS011;42641;59.794;17.616;2023-03-23T12:54:47;7.35;;;2.35;;
56770;SDS011;42641;59.794;17.616;2023-03-23T12:57:29;7.55;;;2.63;;
56770;SDS011;42641;59.794;17.616;2023-03-23T13:00:23;8.05;;;2.33;;
56770;SDS011;42641;59.794;17.616;2023-03-23T13:06:00;11.00;;;3.03;;
56770;SDS011;42641;59.794;17.616;2023-03-23T13:08:50;13.50;;;3.15;;
56770;SDS011;42641;59.794;17.616;2023-03-23T13:11:30;9.07;;;3.05;;
56770;SDS011;42641;59.794;17.616;2023-03-23T13:17:43;8.02;;;2.88;;
56770;SDS011;42641;59.794;17.616;2023-03-23T13:26:10;7.30;;;2.63;;
56770;SDS011;42641;59.794;17.616;2023-03-23T13:31:17;9.30;;;3.25;;
56770;SDS011;42641;59.794;17.616;2023-03-23T13:33:51;8.30;;;2.85;;
56770;SDS011;42641;59.794;17.616;2023-03-23T13:36:26;9.63;;;3.15;;
56770;SDS011;42641;59.794;17.616;2023-03-23T13:39:04;7.38;;;3.00;;
56770;SDS011;42641;59.794;17.616;2023-03-23T13:41:45;9.55;;;3.10;;
56770;SDS011;42641;59.794;17.616;2023-03-23T13:44:25;11.43;;;2.85;;
56770;SDS011;42641;59.794;17.616;2023-03-23T13:47:03;10.10;;;3.05;;
56770;SDS011;42641;59.794;17.616;2023-03-23T13:49:44;9.45;;;2.50;;
56770;SDS011;42641;59.794;17.616;2023-03-23T14:03:13;9.52;;;2.97;;
56770;SDS011;42641;59.794;17.616;2023-03-23T14:13:30;6.07;;;2.58;;
56770;SDS011;42641;59.794;17.616;2023-03-23T14:16:19;10.02;;;2.63;;
56770;SDS011;42641;59.794;17.616;2023-03-23T14:18:54;11.65;;;2.72;;
56770;SDS011;42641;59.794;17.616;2023-03-23T14:21:34;6.53;;;2.22;;
56770;SDS011;42641;59.794;17.616;2023-03-23T14:24:08;8.75;;;2.90;;
56770;SDS011;42641;59.794;17.616;2023-03-23T14:26:43;10.80;;;2.95;;
56770;SDS011;42641;59.794;17.616;2023-03-23T14:29:12;7.15;;;2.60;;
56770;SDS011;42641;59.794;17.616;2023-03-23T14:31:39;9.70;;;2.53;;
56770;SDS011;42641;59.794;17.616;2023-03-23T14:34:16;8.02;;;2.75;;
56770;SDS011;42641;59.794;17.616;2023-03-23T14:36:45;6.70;;;2.65;;
56770;SDS011;42641;59.794;17.616;2023-03-23T14:42:01;6.90;;;2.78;;
56770;SDS011;42641;59.794;17.616;2023-03-23T14:44:50;8.40;;;2.80;;
56770;SDS011;42641;59.794;17.616;2023-03-23T14:47:25;6.68;;;2.30;;
56770;SDS011;42641;59.794;17.616;2023-03-23T14:50:01;8.20;;;3.00;;
56770;SDS011;42641;59.794;17.616;2023-03-23T14:52:34;7.93;;;2.63;;
56770;SDS011;42641;59.794;17.616;2023-03-23T14:55:12;8.15;;;2.80;;
56770;SDS011;42641;59.794;17.616;2023-03-23T14:57:42;7.43;;;2.58;;
56770;SDS011;42641;59.794;17.616;2023-03-23T15:00:13;8.93;;;2.80;;
56770;SDS011;42641;59.794;17.616;2023-03-23T15:02:52;6.75;;;2.55;;
56770;SDS011;42641;59.794;17.616;2023-03-23T15:05:22;5.97;;;2.50;;
56770;SDS011;42641;59.794;17.616;2023-03-23T15:07:55;7.32;;;2.63;;
56770;SDS011;42641;59.794;17.616;2023-03-23T15:10:26;8.88;;;2.80;;
56770;SDS011;42641;59.794;17.616;2023-03-23T15:12:52;9.88;;;2.70;;
56770;SDS011;42641;59.794;17.616;2023-03-23T15:18:01;10.07;;;2.92;;
56770;SDS011;42641;59.794;17.616;2023-03-23T15:20:30;7.07;;;2.50;;
56770;SDS011;42641;59.794;17.616;2023-03-23T15:23:13;11.23;;;2.90;;
56770;SDS011;42641;59.794;17.616;2023-03-23T15:25:50;7.30;;;2.70;;
56770;SDS011;42641;59.794;17.616;2023-03-23T15:28:21;10.55;;;3.20;;
56770;SDS011;42641;59.794;17.616;2023-03-23T15:30:55;6.38;;;2.90;;
56770;SDS011;42641;59.794;17.616;2023-03-23T15:33:26;8.20;;;3.37;;
56770;SDS011;42641;59.794;17.616;2023-03-23T15:35:55;8.87;;;2.80;;
56770;SDS011;42641;59.794;17.616;2023-03-23T15:38:26;12.10;;;3.10;;
56770;SDS011;42641;59.794;17.616;2023-03-23T15:40:57;10.53;;;2.97;;
56770;SDS011;42641;59.794;17.616;2023-03-23T15:43:27;9.73;;;2.97;;
56770;SDS011;42641;59.794;17.616;2023-03-23T15:48:51;7.63;;;3.17;;
56770;SDS011;42641;59.794;17.616;2023-03-23T15:51:31;7.50;;;2.63;;
56770;SDS011;42641;59.794;17.616;2023-03-23T15:53:58;9.47;;;2.73;;
56770;SDS011;42641;59.794;17.616;2023-03-23T15:56:25;12.00;;;2.90;;
56770;SDS011;42641;59.794;17.616;2023-03-23T15:58:52;9.27;;;2.50;;
56770;SDS011;42641;59.794;17.616;2023-03-23T16:01:25;12.87;;;2.63;;
56770;SDS011;42641;59.794;17.616;2023-03-23T16:03:58;5.80;;;2.67;;
56770;SDS011;42641;59.794;17.616;2023-03-23T16:06:27;10.67;;;2.60;;
56770;SDS011;42641;59.794;17.616;2023-03-23T16:08:56;9.90;;;2.47;;
56770;SDS011;42641;59.794;17.616;2023-03-23T16:11:23;5.87;;;2.33;;
56770;SDS011;42641;59.794;17.616;2023-03-23T16:13:51;8.30;;;2.20;;
56770;SDS011;42641;59.794;17.616;2023-03-23T16:18:53;5.77;;;2.30;;
56770;SDS011;42641;59.794;17.616;2023-03-23T16:21:20;23.37;;;3.20;;
56770;SDS011;42641;59.794;17.616;2023-03-23T16:23:47;6.03;;;2.43;;
56770;SDS011;42641;59.794;17.616;2023-03-23T16:26:14;11.17;;;3.37;;
56770;SDS011;42641;59.794;17.616;2023-03-23T16:28:41;8.13;;;2.30;;
56770;SDS011;42641;59.794;17.616;2023-03-23T16:31:08;6.83;;;2.40;;
56770;SDS011;42641;59.794;17.616;2023-03-23T16:33:35;7.83;;;2.70;;
56770;SDS011;42641;59.794;17.616;2023-03-23T16:36:02;7.20;;;2.43;;
56770;SDS011;42641;59.794;17.616;2023-03-23T16:38:29;9.93;;;2.90;;
56770;SDS011;42641;59.794;17.616;2023-03-23T16:40:55;6.43;;;2.40;;
56770;SDS011;42641;59.794;17.616;2023-03-23T16:46:17;8.63;;;2.60;;
56770;SDS011;42641;59.794;17.616;2023-03-23T16:48:44;7.03;;;3.00;;
56770;SDS011;42641;59.794;17.616;2023-03-23T16:51:33;13.73;;;3.00;;
56770;SDS011;42641;59.794;17.616;2023-03-23T16:57:03;8.70;;;2.37;;
56770;SDS011;42641;59.794;17.616;2023-03-23T16:59:31;9.33;;;2.77;;
56770;SDS011;42641;59.794;17.616;2023-03-23T17:04:42;6.53;;;2.07;;
56770;SDS011;42641;59.794;17.616;2023-03-23T17:07:10;7.53;;;2.53;;
56770;SDS011;42641;59.794;17.616;2023-03-23T17:09:38;7.70;;;2.60;;
56770;SDS011;42641;59.794;17.616;2023-03-23T17:15:01;8.93;;;2.50;;
56770;SDS011;42641;59.794;17.616;2023-03-23T17:17:28;16.43;;;3.13;;
56770;SDS011;42641;59.794;17.616;2023-03-23T17:19:55;7.80;;;2.60;;